sensor_id;sensor_type;location;lat;lon;timestamp;P1;durP1;ratioP1;P2;durP2;ratioP2
21769;SDS011;11046;49.558;8.674;2023-07-31T00:02:49;3.92;;;1.50;;
21769;SDS011;11046;49.558;8.674;2023-07-31T00:05:50;4.03;;;1.77;;
21769;SDS011;11046;49.558;8.674;2023-07-31T00:08:50;6.72;;;2.75;;
21769;SDS011;11046;49.558;8.674;2023-07-31T00:11:51;2.95;;;1.80;;
21769;SDS011;11046;49.558;8.674;2023-07-31T00:14:51;5.82;;;1.92;;
21769;SDS011;11046;49.558;8.674;2023-07-31T00:17:52;6.22;;;2.20;;
21769;SDS011;11046;49.558;8.674;2023-07-31T00:20:53;6.05;;;2.10;;
21769;SDS011;11046;49.558;8.674;2023-07-31T00:23:54;5.32;;;1.85;;
21769;SDS011;11046;49.558;8.674;2023-07-31T00:26:54;8.70;;;2.08;;
21769;SDS011;11046;49.558;8.674;2023-07-31T00:29:55;4.85;;;1.88;;
21769;SDS011;11046;49.558;8.674;2023-07-31T00:32:55;7.85;;;1.60;;
21769;SDS011;11046;49.558;8.674;2023-07-31T00:35:56;2.55;;;1.70;;
21769;SDS011;11046;49.558;8.674;2023-07-31T00:38:57;5.55;;;1.73;;
21769;SDS011;11046;49.558;8.674;2023-07-31T00:41:57;3.45;;;1.88;;
21769;SDS011;11046;49.558;8.674;2023-07-31T00:44:58;4.88;;;1.80;;
21769;SDS011;11046;49.558;8.674;2023-07-31T00:47:59;5.78;;;1.80;;
21769;SDS011;11046;49.558;8.674;2023-07-31T00:50:59;6.10;;;1.77;;
21769;SDS011;11046;49.558;8.674;2023-07-31T00:54:01;3.10;;;1.90;;
21769;SDS011;11046;49.558;8.674;2023-07-31T00:57:03;3.72;;;1.90;;
21769;SDS011;11046;49.558;8.674;2023-07-31T01:00:04;3.25;;;1.88;;
21769;SDS011;11046;49.558;8.674;2023-07-31T01:03:05;7.38;;;2.55;;
21769;SDS011;11046;49.558;8.674;2023-07-31T01:06:17;2.65;;;1.45;;
21769;SDS011;11046;49.558;8.674;2023-07-31T01:12:30;3.80;;;1.80;;
21769;SDS011;11046;49.558;8.674;2023-07-31T01:15:32;3.55;;;1.88;;
21769;SDS011;11046;49.558;8.674;2023-07-31T01:18:32;4.82;;;2.13;;
21769;SDS011;11046;49.558;8.674;2023-07-31T01:21:41;4.03;;;1.70;;
21769;SDS011;11046;49.558;8.674;2023-07-31T01:25:09;6.30;;;2.03;;
21769;SDS011;11046;49.558;8.674;2023-07-31T01:28:20;7.25;;;2.03;;
21769;SDS011;11046;49.558;8.674;2023-07-31T01:31:32;2.72;;;1.80;;
21769;SDS011;11046;49.558;8.674;2023-07-31T01:34:34;4.53;;;1.98;;
21769;SDS011;11046;49.558;8.674;2023-07-31T01:37:36;7.78;;;1.67;;
21769;SDS011;11046;49.558;8.674;2023-07-31T01:40:41;4.57;;;1.90;;
21769;SDS011;11046;49.558;8.674;2023-07-31T01:43:43;7.60;;;2.10;;
21769;SDS011;11046;49.558;8.674;2023-07-31T01:46:47;4.25;;;1.83;;
21769;SDS011;11046;49.558;8.674;2023-07-31T01:49:48;4.28;;;1.70;;
21769;SDS011;11046;49.558;8.674;2023-07-31T01:52:50;8.45;;;2.25;;
21769;SDS011;11046;49.558;8.674;2023-07-31T01:55:50;3.53;;;1.80;;
21769;SDS011;11046;49.558;8.674;2023-07-31T01:58:51;3.42;;;1.88;;
21769;SDS011;11046;49.558;8.674;2023-07-31T02:01:52;5.75;;;1.75;;
21769;SDS011;11046;49.558;8.674;2023-07-31T02:04:52;4.95;;;1.92;;
21769;SDS011;11046;49.558;8.674;2023-07-31T02:07:53;8.38;;;2.42;;
21769;SDS011;11046;49.558;8.674;2023-07-31T02:10:54;8.52;;;1.98;;
21769;SDS011;11046;49.558;8.674;2023-07-31T02:13:55;6.10;;;2.47;;
21769;SDS011;11046;49.558;8.674;2023-07-31T02:16:56;8.13;;;1.83;;
21769;SDS011;11046;49.558;8.674;2023-07-31T02:19:57;4.00;;;2.10;;
21769;SDS011;11046;49.558;8.674;2023-07-31T02:22:58;9.82;;;2.22;;
21769;SDS011;11046;49.558;8.674;2023-07-31T02:25:59;3.78;;;1.90;;
21769;SDS011;11046;49.558;8.674;2023-07-31T02:29:00;5.45;;;2.05;;
21769;SDS011;11046;49.558;8.674;2023-07-31T02:32:01;5.80;;;2.20;;
21769;SDS011;11046;49.558;8.674;2023-07-31T02:35:02;4.00;;;1.77;;
21769;SDS011;11046;49.558;8.674;2023-07-31T02:38:03;4.70;;;1.90;;
21769;SDS011;11046;49.558;8.674;2023-07-31T02:41:03;4.95;;;2.33;;
21769;SDS011;11046;49.558;8.674;2023-07-31T02:44:04;4.07;;;1.83;;
21769;SDS011;11046;49.558;8.674;2023-07-31T02:47:05;3.28;;;1.67;;
21769;SDS011;11046;49.558;8.674;2023-07-31T02:50:08;4.72;;;2.20;;
21769;SDS011;11046;49.558;8.674;2023-07-31T02:53:09;8.77;;;2.60;;
21769;SDS011;11046;49.558;8.674;2023-07-31T02:56:09;8.80;;;2.60;;
21769;SDS011;11046;49.558;8.674;2023-07-31T02:59:10;4.63;;;2.50;;
21769;SDS011;11046;49.558;8.674;2023-07-31T03:02:11;5.70;;;2.17;;
21769;SDS011;11046;49.558;8.674;2023-07-31T03:05:13;5.43;;;1.80;;
21769;SDS011;11046;49.558;8.674;2023-07-31T03:08:13;5.63;;;2.03;;
21769;SDS011;11046;49.558;8.674;2023-07-31T03:11:14;9.02;;;2.00;;
21769;SDS011;11046;49.558;8.674;2023-07-31T03:14:15;4.50;;;1.95;;
21769;SDS011;11046;49.558;8.674;2023-07-31T03:17:15;5.07;;;1.73;;
21769;SDS011;11046;49.558;8.674;2023-07-31T03:20:16;7.13;;;2.03;;
21769;SDS011;11046;49.558;8.674;2023-07-31T03:23:17;8.20;;;2.17;;
21769;SDS011;11046;49.558;8.674;2023-07-31T03:26:17;7.32;;;1.90;;
21769;SDS011;11046;49.558;8.674;2023-07-31T03:29:18;7.75;;;2.35;;
21769;SDS011;11046;49.558;8.674;2023-07-31T03:32:19;3.97;;;1.73;;
21769;SDS011;11046;49.558;8.674;2023-07-31T03:35:20;6.35;;;2.03;;
21769;SDS011;11046;49.558;8.674;2023-07-31T03:38:20;6.25;;;2.30;;
21769;SDS011;11046;49.558;8.674;2023-07-31T03:41:21;7.03;;;1.90;;
21769;SDS011;11046;49.558;8.674;2023-07-31T03:44:22;4.05;;;2.20;;
21769;SDS011;11046;49.558;8.674;2023-07-31T03:47:22;4.20;;;2.60;;
21769;SDS011;11046;49.558;8.674;2023-07-31T03:50:23;4.20;;;1.90;;
21769;SDS011;11046;49.558;8.674;2023-07-31T03:53:25;7.68;;;2.28;;
21769;SDS011;11046;49.558;8.674;2023-07-31T03:56:25;5.40;;;2.22;;
21769;SDS011;11046;49.558;8.674;2023-07-31T03:59:26;8.00;;;2.88;;
21769;SDS011;11046;49.558;8.674;2023-07-31T04:02:27;6.63;;;2.50;;
21769;SDS011;11046;49.558;8.674;2023-07-31T04:05:29;5.53;;;2.25;;
21769;SDS011;11046;49.558;8.674;2023-07-31T04:08:30;3.95;;;2.40;;
21769;SDS011;11046;49.558;8.674;2023-07-31T04:11:31;5.65;;;2.20;;
21769;SDS011;11046;49.558;8.674;2023-07-31T04:14:31;6.18;;;2.10;;
21769;SDS011;11046;49.558;8.674;2023-07-31T04:17:32;6.35;;;2.10;;
21769;SDS011;11046;49.558;8.674;2023-07-31T04:20:33;6.28;;;2.20;;
21769;SDS011;11046;49.558;8.674;2023-07-31T04:23:34;6.38;;;2.25;;
21769;SDS011;11046;49.558;8.674;2023-07-31T04:26:34;5.63;;;2.10;;
21769;SDS011;11046;49.558;8.674;2023-07-31T04:29:35;8.88;;;2.35;;
21769;SDS011;11046;49.558;8.674;2023-07-31T04:32:35;3.30;;;2.22;;
21769;SDS011;11046;49.558;8.674;2023-07-31T04:35:36;6.18;;;2.15;;
21769;SDS011;11046;49.558;8.674;2023-07-31T04:38:37;5.63;;;2.20;;
21769;SDS011;11046;49.558;8.674;2023-07-31T04:41:37;6.78;;;2.38;;
21769;SDS011;11046;49.558;8.674;2023-07-31T04:44:38;7.30;;;2.78;;
21769;SDS011;11046;49.558;8.674;2023-07-31T04:47:39;4.97;;;2.42;;
21769;SDS011;11046;49.558;8.674;2023-07-31T04:50:40;5.15;;;2.25;;
21769;SDS011;11046;49.558;8.674;2023-07-31T04:53:40;7.13;;;2.42;;
21769;SDS011;11046;49.558;8.674;2023-07-31T04:56:41;5.70;;;2.22;;
21769;SDS011;11046;49.558;8.674;2023-07-31T04:59:42;5.00;;;2.47;;
21769;SDS011;11046;49.558;8.674;2023-07-31T05:02:42;5.35;;;2.13;;
21769;SDS011;11046;49.558;8.674;2023-07-31T05:05:43;5.43;;;2.05;;
21769;SDS011;11046;49.558;8.674;2023-07-31T05:08:44;6.68;;;2.40;;
21769;SDS011;11046;49.558;8.674;2023-07-31T05:11:44;5.15;;;2.63;;
21769;SDS011;11046;49.558;8.674;2023-07-31T05:14:45;5.00;;;2.28;;
21769;SDS011;11046;49.558;8.674;2023-07-31T05:17:46;5.30;;;2.22;;
21769;SDS011;11046;49.558;8.674;2023-07-31T05:20:46;6.20;;;2.08;;
21769;SDS011;11046;49.558;8.674;2023-07-31T05:23:47;4.00;;;2.63;;
21769;SDS011;11046;49.558;8.674;2023-07-31T05:26:49;6.00;;;2.35;;
21769;SDS011;11046;49.558;8.674;2023-07-31T05:29:49;10.10;;;2.30;;
21769;SDS011;11046;49.558;8.674;2023-07-31T05:32:50;8.85;;;2.40;;
21769;SDS011;11046;49.558;8.674;2023-07-31T05:35:50;7.05;;;2.25;;
21769;SDS011;11046;49.558;8.674;2023-07-31T05:38:51;5.05;;;2.20;;
21769;SDS011;11046;49.558;8.674;2023-07-31T05:41:52;4.53;;;2.03;;
21769;SDS011;11046;49.558;8.674;2023-07-31T05:44:52;3.17;;;1.88;;
21769;SDS011;11046;49.558;8.674;2023-07-31T05:47:54;3.92;;;2.10;;
21769;SDS011;11046;49.558;8.674;2023-07-31T05:50:54;7.13;;;2.30;;
21769;SDS011;11046;49.558;8.674;2023-07-31T05:53:55;7.10;;;2.35;;
21769;SDS011;11046;49.558;8.674;2023-07-31T05:56:56;4.43;;;2.17;;
21769;SDS011;11046;49.558;8.674;2023-07-31T05:59:56;6.63;;;2.45;;
21769;SDS011;11046;49.558;8.674;2023-07-31T06:02:57;3.88;;;2.70;;
21769;SDS011;11046;49.558;8.674;2023-07-31T06:05:58;6.95;;;2.40;;
21769;SDS011;11046;49.558;8.674;2023-07-31T06:08:58;5.00;;;2.35;;
21769;SDS011;11046;49.558;8.674;2023-07-31T06:11:59;6.43;;;2.50;;
21769;SDS011;11046;49.558;8.674;2023-07-31T06:15:00;9.38;;;2.97;;
21769;SDS011;11046;49.558;8.674;2023-07-31T06:18:02;7.18;;;2.55;;
21769;SDS011;11046;49.558;8.674;2023-07-31T06:21:03;8.93;;;2.50;;
21769;SDS011;11046;49.558;8.674;2023-07-31T06:24:04;10.38;;;3.20;;
21769;SDS011;11046;49.558;8.674;2023-07-31T06:27:05;9.18;;;2.65;;
21769;SDS011;11046;49.558;8.674;2023-07-31T06:30:07;6.20;;;2.25;;
21769;SDS011;11046;49.558;8.674;2023-07-31T06:33:08;3.80;;;2.38;;
21769;SDS011;11046;49.558;8.674;2023-07-31T06:36:09;6.03;;;2.92;;
21769;SDS011;11046;49.558;8.674;2023-07-31T06:39:10;4.50;;;2.33;;
21769;SDS011;11046;49.558;8.674;2023-07-31T06:42:10;6.65;;;2.40;;
21769;SDS011;11046;49.558;8.674;2023-07-31T06:45:11;7.07;;;2.53;;
21769;SDS011;11046;49.558;8.674;2023-07-31T06:48:12;3.75;;;2.05;;
21769;SDS011;11046;49.558;8.674;2023-07-31T06:51:13;10.30;;;2.25;;
21769;SDS011;11046;49.558;8.674;2023-07-31T06:54:13;6.38;;;2.47;;
21769;SDS011;11046;49.558;8.674;2023-07-31T06:57:14;5.22;;;2.10;;
21769;SDS011;11046;49.558;8.674;2023-07-31T07:00:15;5.13;;;2.30;;
21769;SDS011;11046;49.558;8.674;2023-07-31T07:03:19;8.80;;;2.28;;
21769;SDS011;11046;49.558;8.674;2023-07-31T07:06:21;4.55;;;2.17;;
21769;SDS011;11046;49.558;8.674;2023-07-31T07:09:23;8.75;;;2.67;;
21769;SDS011;11046;49.558;8.674;2023-07-31T07:12:23;7.18;;;2.50;;
21769;SDS011;11046;49.558;8.674;2023-07-31T07:15:24;5.97;;;2.03;;
21769;SDS011;11046;49.558;8.674;2023-07-31T07:18:25;6.45;;;2.50;;
21769;SDS011;11046;49.558;8.674;2023-07-31T07:21:25;7.93;;;2.13;;
21769;SDS011;11046;49.558;8.674;2023-07-31T07:24:26;5.47;;;2.40;;
21769;SDS011;11046;49.558;8.674;2023-07-31T07:27:27;6.57;;;2.17;;
21769;SDS011;11046;49.558;8.674;2023-07-31T07:30:27;4.40;;;2.22;;
21769;SDS011;11046;49.558;8.674;2023-07-31T07:33:28;3.40;;;1.95;;
21769;SDS011;11046;49.558;8.674;2023-07-31T07:36:29;6.95;;;2.33;;
21769;SDS011;11046;49.558;8.674;2023-07-31T07:39:29;6.03;;;2.10;;
21769;SDS011;11046;49.558;8.674;2023-07-31T07:42:30;5.82;;;2.53;;
21769;SDS011;11046;49.558;8.674;2023-07-31T07:45:31;2.85;;;1.80;;
21769;SDS011;11046;49.558;8.674;2023-07-31T07:48:31;5.68;;;2.65;;
21769;SDS011;11046;49.558;8.674;2023-07-31T07:51:32;3.63;;;1.80;;
21769;SDS011;11046;49.558;8.674;2023-07-31T07:54:33;8.38;;;3.22;;
21769;SDS011;11046;49.558;8.674;2023-07-31T07:57:33;5.68;;;2.30;;
21769;SDS011;11046;49.558;8.674;2023-07-31T08:00:34;4.88;;;2.25;;
21769;SDS011;11046;49.558;8.674;2023-07-31T08:03:35;9.05;;;2.40;;
21769;SDS011;11046;49.558;8.674;2023-07-31T08:06:35;5.82;;;2.35;;
21769;SDS011;11046;49.558;8.674;2023-07-31T08:09:36;6.40;;;2.35;;
21769;SDS011;11046;49.558;8.674;2023-07-31T08:12:37;6.22;;;2.40;;
21769;SDS011;11046;49.558;8.674;2023-07-31T08:15:37;3.47;;;1.85;;
21769;SDS011;11046;49.558;8.674;2023-07-31T08:18:38;8.27;;;2.08;;
21769;SDS011;11046;49.558;8.674;2023-07-31T08:21:40;5.82;;;2.40;;
21769;SDS011;11046;49.558;8.674;2023-07-31T08:24:41;4.90;;;2.05;;
21769;SDS011;11046;49.558;8.674;2023-07-31T08:27:44;4.93;;;2.00;;
21769;SDS011;11046;49.558;8.674;2023-07-31T08:30:45;4.47;;;2.15;;
21769;SDS011;11046;49.558;8.674;2023-07-31T08:33:46;4.90;;;2.08;;
21769;SDS011;11046;49.558;8.674;2023-07-31T08:36:46;5.05;;;2.30;;
21769;SDS011;11046;49.558;8.674;2023-07-31T08:39:47;6.40;;;1.90;;
21769;SDS011;11046;49.558;8.674;2023-07-31T08:42:49;6.28;;;2.53;;
21769;SDS011;11046;49.558;8.674;2023-07-31T08:45:50;6.97;;;2.10;;
21769;SDS011;11046;49.558;8.674;2023-07-31T08:48:51;5.18;;;2.60;;
21769;SDS011;11046;49.558;8.674;2023-07-31T08:51:53;4.82;;;2.40;;
21769;SDS011;11046;49.558;8.674;2023-07-31T08:54:55;6.80;;;2.42;;
21769;SDS011;11046;49.558;8.674;2023-07-31T08:57:56;7.22;;;2.33;;
21769;SDS011;11046;49.558;8.674;2023-07-31T09:00:57;7.18;;;2.28;;
21769;SDS011;11046;49.558;8.674;2023-07-31T09:04:01;7.38;;;2.50;;
21769;SDS011;11046;49.558;8.674;2023-07-31T09:07:03;5.28;;;2.42;;
21769;SDS011;11046;49.558;8.674;2023-07-31T09:10:06;5.00;;;2.13;;
21769;SDS011;11046;49.558;8.674;2023-07-31T09:13:09;5.22;;;1.98;;
21769;SDS011;11046;49.558;8.674;2023-07-31T09:16:10;6.15;;;2.42;;
21769;SDS011;11046;49.558;8.674;2023-07-31T09:19:11;6.65;;;2.22;;
21769;SDS011;11046;49.558;8.674;2023-07-31T09:22:12;10.35;;;2.10;;
21769;SDS011;11046;49.558;8.674;2023-07-31T09:25:34;4.40;;;2.30;;
21769;SDS011;11046;49.558;8.674;2023-07-31T09:28:36;8.32;;;2.83;;
21769;SDS011;11046;49.558;8.674;2023-07-31T09:31:41;4.47;;;1.95;;
21769;SDS011;11046;49.558;8.674;2023-07-31T09:34:42;5.13;;;2.30;;
21769;SDS011;11046;49.558;8.674;2023-07-31T09:37:43;10.88;;;2.83;;
21769;SDS011;11046;49.558;8.674;2023-07-31T09:40:45;6.82;;;2.50;;
21769;SDS011;11046;49.558;8.674;2023-07-31T09:43:53;6.90;;;2.25;;
21769;SDS011;11046;49.558;8.674;2023-07-31T09:46:54;7.30;;;2.20;;
21769;SDS011;11046;49.558;8.674;2023-07-31T09:49:55;6.78;;;2.40;;
21769;SDS011;11046;49.558;8.674;2023-07-31T09:52:56;7.97;;;2.50;;
21769;SDS011;11046;49.558;8.674;2023-07-31T09:55:58;4.97;;;1.98;;
21769;SDS011;11046;49.558;8.674;2023-07-31T09:58:59;7.10;;;2.22;;
21769;SDS011;11046;49.558;8.674;2023-07-31T10:02:01;5.10;;;2.30;;
21769;SDS011;11046;49.558;8.674;2023-07-31T10:05:02;8.30;;;2.28;;
21769;SDS011;11046;49.558;8.674;2023-07-31T10:08:04;6.35;;;2.30;;
21769;SDS011;11046;49.558;8.674;2023-07-31T10:11:07;8.98;;;2.60;;
21769;SDS011;11046;49.558;8.674;2023-07-31T10:14:09;5.50;;;2.33;;
21769;SDS011;11046;49.558;8.674;2023-07-31T10:17:11;5.45;;;2.65;;
21769;SDS011;11046;49.558;8.674;2023-07-31T10:20:12;5.22;;;2.50;;
21769;SDS011;11046;49.558;8.674;2023-07-31T10:23:15;5.22;;;2.63;;
21769;SDS011;11046;49.558;8.674;2023-07-31T10:26:18;7.35;;;2.92;;
21769;SDS011;11046;49.558;8.674;2023-07-31T10:29:19;7.10;;;2.60;;
21769;SDS011;11046;49.558;8.674;2023-07-31T10:32:24;7.22;;;2.92;;
21769;SDS011;11046;49.558;8.674;2023-07-31T10:35:25;5.88;;;2.90;;
21769;SDS011;11046;49.558;8.674;2023-07-31T10:38:27;6.18;;;2.42;;
21769;SDS011;11046;49.558;8.674;2023-07-31T10:41:28;7.68;;;2.40;;
21769;SDS011;11046;49.558;8.674;2023-07-31T10:44:32;4.80;;;2.55;;
21769;SDS011;11046;49.558;8.674;2023-07-31T10:47:37;8.85;;;3.47;;
21769;SDS011;11046;49.558;8.674;2023-07-31T10:50:45;6.75;;;2.70;;
21769;SDS011;11046;49.558;8.674;2023-07-31T10:53:48;5.53;;;3.00;;
21769;SDS011;11046;49.558;8.674;2023-07-31T10:56:52;6.60;;;2.55;;
21769;SDS011;11046;49.558;8.674;2023-07-31T10:59:53;6.82;;;3.05;;
21769;SDS011;11046;49.558;8.674;2023-07-31T11:03:24;10.65;;;3.47;;
21769;SDS011;11046;49.558;8.674;2023-07-31T11:06:41;8.38;;;2.80;;
21769;SDS011;11046;49.558;8.674;2023-07-31T11:09:59;5.57;;;2.58;;
21769;SDS011;11046;49.558;8.674;2023-07-31T11:12:59;4.80;;;2.63;;
21769;SDS011;11046;49.558;8.674;2023-07-31T11:16:00;9.90;;;3.00;;
21769;SDS011;11046;49.558;8.674;2023-07-31T11:19:01;5.75;;;3.25;;
21769;SDS011;11046;49.558;8.674;2023-07-31T11:22:01;6.22;;;2.60;;
21769;SDS011;11046;49.558;8.674;2023-07-31T11:25:03;6.55;;;2.75;;
21769;SDS011;11046;49.558;8.674;2023-07-31T11:28:05;4.45;;;2.67;;
21769;SDS011;11046;49.558;8.674;2023-07-31T11:31:08;7.57;;;2.95;;
21769;SDS011;11046;49.558;8.674;2023-07-31T11:34:12;9.52;;;2.47;;
21769;SDS011;11046;49.558;8.674;2023-07-31T11:37:17;7.00;;;2.80;;
21769;SDS011;11046;49.558;8.674;2023-07-31T11:40:18;8.07;;;2.72;;
21769;SDS011;11046;49.558;8.674;2023-07-31T11:43:19;6.90;;;2.75;;
21769;SDS011;11046;49.558;8.674;2023-07-31T11:46:20;7.13;;;2.60;;
21769;SDS011;11046;49.558;8.674;2023-07-31T11:49:21;6.72;;;2.70;;
21769;SDS011;11046;49.558;8.674;2023-07-31T11:52:21;5.00;;;2.55;;
21769;SDS011;11046;49.558;8.674;2023-07-31T11:55:23;5.50;;;2.47;;
21769;SDS011;11046;49.558;8.674;2023-07-31T11:58:25;7.38;;;2.78;;
21769;SDS011;11046;49.558;8.674;2023-07-31T12:01:27;6.10;;;2.35;;
21769;SDS011;11046;49.558;8.674;2023-07-31T12:04:28;6.05;;;2.67;;
21769;SDS011;11046;49.558;8.674;2023-07-31T12:07:42;6.05;;;2.85;;
21769;SDS011;11046;49.558;8.674;2023-07-31T12:10:44;6.70;;;2.83;;
21769;SDS011;11046;49.558;8.674;2023-07-31T12:13:45;7.47;;;3.10;;
21769;SDS011;11046;49.558;8.674;2023-07-31T12:16:46;5.03;;;2.80;;
21769;SDS011;11046;49.558;8.674;2023-07-31T12:19:48;7.38;;;2.75;;
21769;SDS011;11046;49.558;8.674;2023-07-31T12:22:50;6.32;;;2.35;;
21769;SDS011;11046;49.558;8.674;2023-07-31T12:25:59;7.70;;;2.70;;
21769;SDS011;11046;49.558;8.674;2023-07-31T12:29:07;7.93;;;2.85;;
21769;SDS011;11046;49.558;8.674;2023-07-31T12:32:22;5.38;;;2.60;;
21769;SDS011;11046;49.558;8.674;2023-07-31T12:35:34;7.43;;;2.97;;
21769;SDS011;11046;49.558;8.674;2023-07-31T12:38:36;4.95;;;2.50;;
21769;SDS011;11046;49.558;8.674;2023-07-31T12:41:37;4.97;;;2.38;;
21769;SDS011;11046;49.558;8.674;2023-07-31T12:44:37;5.75;;;2.75;;
21769;SDS011;11046;49.558;8.674;2023-07-31T12:47:38;5.65;;;2.45;;
21769;SDS011;11046;49.558;8.674;2023-07-31T12:50:39;6.32;;;2.38;;
21769;SDS011;11046;49.558;8.674;2023-07-31T12:53:40;5.05;;;2.30;;
21769;SDS011;11046;49.558;8.674;2023-07-31T12:56:41;7.25;;;2.97;;
21769;SDS011;11046;49.558;8.674;2023-07-31T12:59:41;5.57;;;2.78;;
21769;SDS011;11046;49.558;8.674;2023-07-31T13:02:42;6.70;;;2.50;;
21769;SDS011;11046;49.558;8.674;2023-07-31T13:05:43;5.00;;;2.67;;
21769;SDS011;11046;49.558;8.674;2023-07-31T13:08:45;7.07;;;3.17;;
21769;SDS011;11046;49.558;8.674;2023-07-31T13:11:45;5.75;;;2.55;;
21769;SDS011;11046;49.558;8.674;2023-07-31T13:14:46;5.30;;;2.70;;
21769;SDS011;11046;49.558;8.674;2023-07-31T13:17:47;7.40;;;2.78;;
21769;SDS011;11046;49.558;8.674;2023-07-31T13:20:47;5.55;;;2.28;;
21769;SDS011;11046;49.558;8.674;2023-07-31T13:23:48;6.63;;;2.50;;
21769;SDS011;11046;49.558;8.674;2023-07-31T13:26:49;6.88;;;2.95;;
21769;SDS011;11046;49.558;8.674;2023-07-31T13:29:50;6.70;;;2.70;;
21769;SDS011;11046;49.558;8.674;2023-07-31T13:32:52;7.55;;;2.33;;
21769;SDS011;11046;49.558;8.674;2023-07-31T13:35:52;7.53;;;2.55;;
21769;SDS011;11046;49.558;8.674;2023-07-31T13:38:55;3.83;;;2.28;;
21769;SDS011;11046;49.558;8.674;2023-07-31T13:41:56;5.50;;;2.42;;
21769;SDS011;11046;49.558;8.674;2023-07-31T13:44:57;6.78;;;2.45;;
21769;SDS011;11046;49.558;8.674;2023-07-31T13:47:58;9.05;;;2.95;;
21769;SDS011;11046;49.558;8.674;2023-07-31T13:50:58;6.25;;;2.38;;
21769;SDS011;11046;49.558;8.674;2023-07-31T13:53:59;4.85;;;2.40;;
21769;SDS011;11046;49.558;8.674;2023-07-31T13:56:59;7.47;;;2.50;;
21769;SDS011;11046;49.558;8.674;2023-07-31T14:00:00;7.25;;;2.80;;
21769;SDS011;11046;49.558;8.674;2023-07-31T14:03:01;6.88;;;2.72;;
21769;SDS011;11046;49.558;8.674;2023-07-31T14:06:02;7.18;;;2.83;;
21769;SDS011;11046;49.558;8.674;2023-07-31T14:09:03;7.95;;;2.90;;
21769;SDS011;11046;49.558;8.674;2023-07-31T14:12:04;10.52;;;3.10;;
21769;SDS011;11046;49.558;8.674;2023-07-31T14:15:05;6.43;;;2.80;;
21769;SDS011;11046;49.558;8.674;2023-07-31T14:18:06;4.30;;;2.45;;
21769;SDS011;11046;49.558;8.674;2023-07-31T14:21:07;7.53;;;2.40;;
21769;SDS011;11046;49.558;8.674;2023-07-31T14:24:07;6.13;;;2.60;;
21769;SDS011;11046;49.558;8.674;2023-07-31T14:27:08;8.45;;;2.75;;
21769;SDS011;11046;49.558;8.674;2023-07-31T14:30:10;5.53;;;2.72;;
21769;SDS011;11046;49.558;8.674;2023-07-31T14:33:10;5.13;;;2.78;;
21769;SDS011;11046;49.558;8.674;2023-07-31T14:36:11;4.72;;;2.40;;
21769;SDS011;11046;49.558;8.674;2023-07-31T14:39:12;5.53;;;2.60;;
21769;SDS011;11046;49.558;8.674;2023-07-31T14:42:12;9.10;;;2.63;;
21769;SDS011;11046;49.558;8.674;2023-07-31T14:45:13;8.05;;;2.70;;
21769;SDS011;11046;49.558;8.674;2023-07-31T14:48:14;9.95;;;2.80;;
21769;SDS011;11046;49.558;8.674;2023-07-31T14:51:15;6.72;;;2.70;;
21769;SDS011;11046;49.558;8.674;2023-07-31T14:54:16;5.45;;;2.58;;
21769;SDS011;11046;49.558;8.674;2023-07-31T14:57:17;5.43;;;2.65;;
21769;SDS011;11046;49.558;8.674;2023-07-31T15:00:18;5.78;;;2.78;;
21769;SDS011;11046;49.558;8.674;2023-07-31T15:03:18;4.45;;;2.60;;
21769;SDS011;11046;49.558;8.674;2023-07-31T15:06:19;7.28;;;2.58;;
21769;SDS011;11046;49.558;8.674;2023-07-31T15:09:20;5.72;;;2.75;;
21769;SDS011;11046;49.558;8.674;2023-07-31T15:12:20;5.47;;;2.42;;
21769;SDS011;11046;49.558;8.674;2023-07-31T15:15:21;7.22;;;2.53;;
21769;SDS011;11046;49.558;8.674;2023-07-31T15:18:22;7.50;;;3.08;;
21769;SDS011;11046;49.558;8.674;2023-07-31T15:21:23;7.00;;;2.67;;
21769;SDS011;11046;49.558;8.674;2023-07-31T15:24:23;9.48;;;2.70;;
21769;SDS011;11046;49.558;8.674;2023-07-31T15:27:24;7.28;;;2.55;;
21769;SDS011;11046;49.558;8.674;2023-07-31T15:30:24;7.30;;;2.63;;
21769;SDS011;11046;49.558;8.674;2023-07-31T15:33:25;4.53;;;2.30;;
21769;SDS011;11046;49.558;8.674;2023-07-31T15:36:26;5.18;;;2.85;;
21769;SDS011;11046;49.558;8.674;2023-07-31T15:39:26;3.53;;;2.30;;
21769;SDS011;11046;49.558;8.674;2023-07-31T15:42:27;4.65;;;1.92;;
21769;SDS011;11046;49.558;8.674;2023-07-31T15:45:28;4.68;;;2.50;;
21769;SDS011;11046;49.558;8.674;2023-07-31T15:48:30;5.38;;;2.20;;
21769;SDS011;11046;49.558;8.674;2023-07-31T15:51:32;6.07;;;2.42;;
21769;SDS011;11046;49.558;8.674;2023-07-31T15:54:33;5.70;;;2.78;;
21769;SDS011;11046;49.558;8.674;2023-07-31T15:57:34;6.80;;;2.60;;
21769;SDS011;11046;49.558;8.674;2023-07-31T16:00:35;8.07;;;2.88;;
21769;SDS011;11046;49.558;8.674;2023-07-31T16:03:35;6.70;;;2.58;;
21769;SDS011;11046;49.558;8.674;2023-07-31T16:06:36;6.30;;;2.42;;
21769;SDS011;11046;49.558;8.674;2023-07-31T16:09:37;6.10;;;2.38;;
21769;SDS011;11046;49.558;8.674;2023-07-31T16:12:38;4.43;;;2.42;;
21769;SDS011;11046;49.558;8.674;2023-07-31T16:15:40;5.22;;;2.17;;
21769;SDS011;11046;49.558;8.674;2023-07-31T16:18:42;9.23;;;2.70;;
21769;SDS011;11046;49.558;8.674;2023-07-31T16:21:44;6.95;;;2.60;;
21769;SDS011;11046;49.558;8.674;2023-07-31T16:24:47;8.23;;;2.90;;
21769;SDS011;11046;49.558;8.674;2023-07-31T16:27:47;4.50;;;2.20;;
21769;SDS011;11046;49.558;8.674;2023-07-31T16:30:48;4.95;;;2.85;;
21769;SDS011;11046;49.558;8.674;2023-07-31T16:33:48;7.13;;;3.20;;
21769;SDS011;11046;49.558;8.674;2023-07-31T16:36:49;7.85;;;3.10;;
21769;SDS011;11046;49.558;8.674;2023-07-31T16:39:50;5.60;;;3.20;;
21769;SDS011;11046;49.558;8.674;2023-07-31T16:42:51;7.25;;;2.83;;
21769;SDS011;11046;49.558;8.674;2023-07-31T16:45:52;6.10;;;2.97;;
21769;SDS011;11046;49.558;8.674;2023-07-31T16:48:53;5.95;;;2.78;;
21769;SDS011;11046;49.558;8.674;2023-07-31T16:51:54;9.45;;;3.10;;
21769;SDS011;11046;49.558;8.674;2023-07-31T16:54:55;8.85;;;2.90;;
21769;SDS011;11046;49.558;8.674;2023-07-31T16:57:55;5.90;;;2.90;;
21769;SDS011;11046;49.558;8.674;2023-07-31T17:00:56;8.30;;;3.78;;
21769;SDS011;11046;49.558;8.674;2023-07-31T17:03:59;7.22;;;3.33;;
21769;SDS011;11046;49.558;8.674;2023-07-31T17:06:59;13.05;;;3.17;;
21769;SDS011;11046;49.558;8.674;2023-07-31T17:10:00;8.52;;;3.40;;
21769;SDS011;11046;49.558;8.674;2023-07-31T17:13:00;10.93;;;3.25;;
21769;SDS011;11046;49.558;8.674;2023-07-31T17:16:01;9.32;;;4.07;;
21769;SDS011;11046;49.558;8.674;2023-07-31T17:19:02;10.20;;;4.15;;
21769;SDS011;11046;49.558;8.674;2023-07-31T17:22:03;6.93;;;3.47;;
21769;SDS011;11046;49.558;8.674;2023-07-31T17:25:04;8.27;;;3.60;;
21769;SDS011;11046;49.558;8.674;2023-07-31T17:28:05;6.90;;;3.78;;
21769;SDS011;11046;49.558;8.674;2023-07-31T17:31:05;9.30;;;3.80;;
21769;SDS011;11046;49.558;8.674;2023-07-31T17:34:07;7.45;;;4.10;;
21769;SDS011;11046;49.558;8.674;2023-07-31T17:37:08;12.63;;;3.78;;
21769;SDS011;11046;49.558;8.674;2023-07-31T17:40:08;8.93;;;4.00;;
21769;SDS011;11046;49.558;8.674;2023-07-31T17:43:09;7.10;;;3.42;;
21769;SDS011;11046;49.558;8.674;2023-07-31T17:46:10;9.55;;;4.45;;
21769;SDS011;11046;49.558;8.674;2023-07-31T17:49:11;9.45;;;4.35;;
21769;SDS011;11046;49.558;8.674;2023-07-31T17:52:11;8.10;;;3.67;;
21769;SDS011;11046;49.558;8.674;2023-07-31T17:55:12;12.50;;;4.05;;
21769;SDS011;11046;49.558;8.674;2023-07-31T17:58:12;9.07;;;3.80;;
21769;SDS011;11046;49.558;8.674;2023-07-31T18:01:13;11.32;;;3.75;;
21769;SDS011;11046;49.558;8.674;2023-07-31T18:04:13;10.35;;;4.28;;
21769;SDS011;11046;49.558;8.674;2023-07-31T18:07:14;13.82;;;4.25;;
21769;SDS011;11046;49.558;8.674;2023-07-31T18:10:15;11.48;;;4.32;;
21769;SDS011;11046;49.558;8.674;2023-07-31T18:13:15;9.07;;;4.47;;
21769;SDS011;11046;49.558;8.674;2023-07-31T18:16:16;10.98;;;3.83;;
21769;SDS011;11046;49.558;8.674;2023-07-31T18:19:17;10.73;;;4.70;;